首页
METAR-TAF:

METAR-TAF

机场 :

Keokuk Municipal Airport

Keokuk, 艾奥瓦州, 美国

纬度: 40-28N, 经度: 091-26W, 海拔: 205米

当前天气观测

该预报发布于22分钟前的04:55 UTC
风速13节,风向西南,有时为20节阵风
温度 21°C
湿度 83%
气压 1011 hPa
能見度: 16.1公里
天空无云

METAR: KEOK 250455Z AUTO 22013G20KT 10SM CLR 21/18 A2984 RMK AO2

时间: 00:17 (05:17 UTC)


TAF: 丢失

超过4000个机场的气象观测和天气预报(METAR&TAF报告)。

可查询的气象台以黄色和红色小点在地图上表示。

将鼠标移到小点上方,可查看气象台名称。

然后点击查看天气观测和预报。

如需切换地图:点击带黑十字的绿色按钮放大地图;点击带横线的绿色按钮缩小地图;或者点击绿色箭头查看邻近地区的地图。


METAR-TAF: